Time;durP1;ratioP1;P1;durP2;ratioP2;P2;SDS_P1;SDS_P2;PMS_P1;PMS_P2;Temp;Humidity;BMP_temperature;BMP_pressure;BME280_temperature;BME280_humidity;BME280_pressure;Samples;Min_cycle;Max_cycle;Signal;HPM_P1;HPM_P2
2024/04/18 00:00:31;;;;;;;1999.90;999.90;;;6.20;99.90;;;;;;5418065;26;20364;-67
2024/04/18 00:02:57;;;;;;;1999.90;999.90;;;6.30;99.90;;;;;;5417780;26;20010;-68
2024/04/18 00:05:22;;;;;;;1999.90;999.90;;;6.40;99.90;;;;;;5421938;26;20672;-67
2024/04/18 00:07:48;;;;;;;1999.90;999.90;;;6.40;99.90;;;;;;5414651;26;20003;-67
2024/04/18 00:10:14;;;;;;;1999.90;999.90;;;6.40;99.90;;;;;;5417693;26;20012;-68
2024/04/18 00:12:40;;;;;;;1999.90;999.90;;;6.30;99.90;;;;;;5411050;26;19999;-67
2024/04/18 00:15:08;;;;;;;1999.90;999.90;;;6.30;99.90;;;;;;5422707;26;20010;-68
2024/04/18 00:17:36;;;;;;;1999.90;999.90;;;6.20;99.90;;;;;;5415956;26;19999;-67
2024/04/18 00:20:03;;;;;;;1999.90;999.90;;;6.00;99.90;;;;;;5425966;26;20099;-67
2024/04/18 00:22:29;;;;;;;1999.90;999.90;;;6.00;99.90;;;;;;5415307;26;20007;-67
2024/04/18 00:24:55;;;;;;;1999.90;999.90;;;6.10;99.90;;;;;;5409211;26;20007;-68
2024/04/18 00:27:20;;;;;;;1999.90;999.90;;;6.30;99.90;;;;;;5415089;26;20013;-68
2024/04/18 00:29:46;;;;;;;1999.90;999.90;;;6.20;99.90;;;;;;5418174;26;19999;-68
2024/04/18 00:32:13;;;;;;;1999.90;999.90;;;6.10;99.90;;;;;;5421094;26;20026;-68
2024/04/18 00:34:39;;;;;;;1999.90;999.90;;;6.00;99.90;;;;;;5436798;26;19998;-67
2024/04/18 00:37:05;;;;;;;1999.90;999.90;;;5.90;99.90;;;;;;5426981;26;19999;-68
2024/04/18 00:39:30;;;;;;;1999.90;999.90;;;5.90;99.90;;;;;;5420224;26;20332;-68
2024/04/18 00:41:56;;;;;;;1999.90;999.90;;;6.00;99.90;;;;;;5417141;26;20015;-68
2024/04/18 00:44:22;;;;;;;1999.90;999.90;;;6.10;99.90;;;;;;5422254;26;20013;-68
2024/04/18 00:46:51;;;;;;;1999.90;999.90;;;6.10;99.90;;;;;;5422426;26;19996;-68
2024/04/18 00:49:17;;;;;;;1999.90;999.90;;;6.20;99.90;;;;;;5413900;26;20008;-68
2024/04/18 00:51:43;;;;;;;1999.90;999.90;;;6.10;99.90;;;;;;5418060;26;20014;-68
2024/04/18 00:54:10;;;;;;;1999.90;999.90;;;6.10;99.90;;;;;;5432998;26;20525;-68
2024/04/18 00:56:38;;;;;;;1999.90;999.90;;;6.10;99.90;;;;;;5414917;26;19995;-67
2024/04/18 00:59:03;;;;;;;1999.90;999.90;;;6.10;99.90;;;;;;5427023;26;20004;-68
2024/04/18 01:01:30;;;;;;;1999.90;999.90;;;6.10;99.90;;;;;;5425457;26;19994;-68
2024/04/18 01:03:56;;;;;;;1999.90;999.90;;;5.90;99.90;;;;;;5422519;26;20003;-68
2024/04/18 01:06:23;;;;;;;1999.90;999.90;;;5.90;99.90;;;;;;5414195;26;20484;-68
2024/04/18 01:08:49;;;;;;;1999.90;999.90;;;5.90;99.90;;;;;;5410772;26;19999;-68
2024/04/18 01:11:15;;;;;;;1999.90;999.90;;;5.80;99.90;;;;;;5418425;26;20435;-68
2024/04/18 01:13:40;;;;;;;1999.90;999.90;;;5.70;99.90;;;;;;5420903;26;20003;-68
2024/04/18 01:16:06;;;;;;;1999.90;999.90;;;5.70;99.90;;;;;;5418179;26;19995;-68
2024/04/18 01:18:32;;;;;;;1999.90;999.90;;;5.60;99.90;;;;;;5412646;26;19999;-68
2024/04/18 01:20:58;;;;;;;1999.90;999.90;;;5.60;99.90;;;;;;5422100;26;20443;-67
2024/04/18 01:23:27;;;;;;;1999.90;999.90;;;5.50;99.90;;;;;;5423596;26;20008;-68
2024/04/18 01:25:52;;;;;;;1999.90;999.90;;;5.70;99.90;;;;;;5401752;26;20078;-68
2024/04/18 01:28:18;;;;;;;1999.90;999.90;;;5.80;99.90;;;;;;5413446;26;20003;-68
2024/04/18 01:30:44;;;;;;;1999.90;999.90;;;5.70;99.90;;;;;;5414800;26;19995;-68
2024/04/18 01:33:09;;;;;;;1999.90;999.90;;;5.70;99.90;;;;;;5421712;26;20067;-68
2024/04/18 01:35:35;;;;;;;1999.90;999.90;;;5.70;99.90;;;;;;5424265;26;20009;-68
2024/04/18 01:38:01;;;;;;;1999.90;999.90;;;5.70;99.90;;;;;;5425853;26;19995;-68
2024/04/18 01:40:26;;;;;;;1999.90;999.90;;;5.70;99.90;;;;;;5430975;26;20427;-67
2024/04/18 01:42:52;;;;;;;1999.90;999.90;;;5.70;99.90;;;;;;5403396;26;20076;-68
2024/04/18 01:45:18;;;;;;;1999.90;999.90;;;5.60;99.90;;;;;;5419232;26;20002;-68
2024/04/18 01:47:43;;;;;;;1999.90;999.90;;;5.70;99.90;;;;;;5436888;26;20010;-67
2024/04/18 01:50:09;;;;;;;1999.90;999.90;;;5.60;99.90;;;;;;5427362;26;20015;-68
2024/04/18 01:52:36;;;;;;;1999.90;999.90;;;5.50;99.90;;;;;;5424416;26;20076;-67
2024/04/18 01:55:03;;;;;;;1999.90;999.90;;;5.40;99.90;;;;;;5430393;26;20014;-68
2024/04/18 01:57:28;;;;;;;1999.90;999.90;;;5.40;99.90;;;;;;5435145;26;19995;-68
2024/04/18 01:59:54;;;;;;;1999.90;999.90;;;5.30;99.90;;;;;;5416427;26;20138;-68
2024/04/18 02:02:19;;;;;;;1999.90;999.90;;;5.20;99.90;;;;;;5439457;26;20435;-68
2024/04/18 02:04:45;;;;;;;1999.90;999.90;;;5.20;99.90;;;;;;5430576;26;20014;-68
2024/04/18 02:07:11;;;;;;;1999.90;999.90;;;5.20;99.90;;;;;;5418792;26;19999;-68
2024/04/18 02:09:36;;;;;;;1999.90;999.90;;;5.20;99.90;;;;;;5430467;26;20002;-68
2024/04/18 02:12:02;;;;;;;1999.90;999.90;;;5.10;99.90;;;;;;5434706;26;20000;-68
2024/04/18 02:14:27;;;;;;;1999.90;999.90;;;5.00;99.90;;;;;;5428820;26;19994;-68
2024/04/18 02:16:53;;;;;;;1999.90;999.90;;;5.10;99.90;;;;;;5439141;26;20002;-67
2024/04/18 02:19:19;;;;;;;1999.90;999.90;;;5.20;99.90;;;;;;5409755;26;20433;-68
2024/04/18 02:21:44;;;;;;;1999.90;999.90;;;5.10;99.90;;;;;;5419770;26;20331;-68
2024/04/18 02:24:10;;;;;;;1999.90;999.90;;;5.00;99.90;;;;;;5421294;26;20002;-68
2024/04/18 02:26:36;;;;;;;1999.90;999.90;;;5.10;99.90;;;;;;5424365;26;20002;-68
2024/04/18 02:29:01;;;;;;;1999.90;999.90;;;4.90;99.90;;;;;;5423323;26;20070;-68
2024/04/18 02:31:27;;;;;;;1999.90;999.90;;;5.00;99.90;;;;;;5418065;26;20069;-68
2024/04/18 02:33:53;;;;;;;1999.90;999.90;;;5.00;99.90;;;;;;5413908;26;20327;-68
2024/04/18 02:36:19;;;;;;;1999.90;999.90;;;5.10;99.90;;;;;;5441475;26;20006;-68
2024/04/18 02:38:45;;;;;;;1999.90;999.90;;;5.10;99.90;;;;;;5444578;26;20455;-68
2024/04/18 02:41:10;;;;;;;1999.90;999.90;;;5.10;99.90;;;;;;5440381;26;20014;-68
2024/04/18 02:43:36;;;;;;;1999.90;999.90;;;5.30;99.90;;;;;;5430132;26;19994;-68
2024/04/18 02:46:02;;;;;;;1999.90;999.90;;;5.30;99.90;;;;;;5444575;26;20040;-68
2024/04/18 02:48:28;;;;;;;1999.90;999.90;;;5.50;99.90;;;;;;5451697;26;20009;-68
2024/04/18 02:50:53;;;;;;;1999.90;999.90;;;5.60;99.90;;;;;;5424129;26;19999;-68
2024/04/18 02:53:19;;;;;;;1999.90;999.90;;;5.70;99.90;;;;;;5434266;26;20009;-68
2024/04/18 02:55:45;;;;;;;1999.90;999.90;;;5.70;99.90;;;;;;5436021;26;19998;-68
2024/04/18 02:58:10;;;;;;;1999.90;999.90;;;5.70;99.90;;;;;;5438924;26;19999;-68
2024/04/18 03:00:36;;;;;;;1999.90;999.90;;;5.90;99.90;;;;;;5447400;26;20469;-68
2024/04/18 03:03:02;;;;;;;1999.90;999.90;;;6.00;99.90;;;;;;5446264;26;20005;-68
2024/04/18 03:05:28;;;;;;;1999.90;999.90;;;6.00;99.90;;;;;;5437615;26;20395;-68
2024/04/18 03:07:57;;;;;;;1999.90;999.90;;;6.00;99.90;;;;;;5437073;26;20318;-67
2024/04/18 03:10:24;;;;;;;1999.90;999.90;;;6.00;99.90;;;;;;5447203;26;20092;-68
2024/04/18 03:12:53;;;;;;;1999.90;999.90;;;6.00;99.90;;;;;;5451799;26;20013;-69
2024/04/18 03:15:20;;;;;;;1999.90;999.90;;;6.00;99.90;;;;;;5448025;26;20002;-68
2024/04/18 03:17:49;;;;;;;1999.90;999.90;;;6.10;99.90;;;;;;5440867;26;20701;-68
2024/04/18 03:20:15;;;;;;;1999.90;999.90;;;6.10;99.90;;;;;;5431642;26;20014;-68
2024/04/18 03:22:41;;;;;;;1999.90;999.90;;;6.20;99.90;;;;;;5442304;26;20003;-68
2024/04/18 03:25:06;;;;;;;1999.90;999.90;;;6.30;99.90;;;;;;5416926;26;20425;-68
2024/04/18 03:27:33;;;;;;;1999.90;999.90;;;6.20;99.90;;;;;;5432256;26;20075;-68
2024/04/18 03:29:58;;;;;;;1999.90;999.90;;;6.30;99.90;;;;;;5427146;26;19991;-68
2024/04/18 03:32:25;;;;;;;1999.90;999.90;;;6.30;99.90;;;;;;5442150;26;20018;-68
2024/04/18 03:34:51;;;;;;;1999.90;999.90;;;6.30;99.90;;;;;;5442576;26;20002;-68
2024/04/18 03:37:16;;;;;;;1999.90;999.90;;;6.30;99.90;;;;;;5427671;26;19999;-67
2024/04/18 03:39:42;;;;;;;1999.90;999.90;;;6.40;99.90;;;;;;5443857;26;20005;-68
2024/04/18 03:42:08;;;;;;;1999.90;999.90;;;6.50;99.90;;;;;;5435650;26;20014;-68
2024/04/18 03:44:33;;;;;;;1999.90;999.90;;;6.50;99.90;;;;;;5442525;26;19994;-68
2024/04/18 03:46:59;;;;;;;1999.90;999.90;;;6.50;99.90;;;;;;5430474;26;20027;-68
2024/04/18 03:49:24;;;;;;;1999.90;999.90;;;6.60;99.90;;;;;;5419581;26;20467;-68
2024/04/18 03:51:50;;;;;;;1999.90;999.90;;;6.80;99.90;;;;;;5422839;26;20068;-68
2024/04/18 03:54:16;;;;;;;1999.90;999.90;;;6.80;99.90;;;;;;5431199;26;19999;-68
2024/04/18 03:56:42;;;;;;;1999.90;999.90;;;6.90;99.90;;;;;;5432899;26;20067;-68
2024/04/18 03:59:08;;;;;;;1999.90;999.90;;;7.00;99.90;;;;;;5442147;26;20015;-67
2024/04/18 04:01:35;;;;;;;1999.90;999.90;;;7.00;99.90;;;;;;5417922;26;20011;-67
2024/04/18 04:04:00;;;;;;;1999.90;999.90;;;6.90;99.90;;;;;;5439369;26;20455;-67
2024/04/18 04:06:26;;;;;;;1999.90;999.90;;;6.70;99.90;;;;;;5429414;26;20004;-68
2024/04/18 04:08:51;;;;;;;1999.90;999.90;;;6.70;99.90;;;;;;5419442;26;20000;-68
2024/04/18 04:11:18;;;;;;;1999.90;999.90;;;6.50;99.90;;;;;;5434008;26;20450;-67
2024/04/18 04:13:43;;;;;;;1999.90;999.90;;;6.30;99.90;;;;;;5417794;26;20011;-67
2024/04/18 04:16:09;;;;;;;1999.90;999.90;;;6.20;99.90;;;;;;5419989;26;20353;-67
2024/04/18 04:18:35;;;;;;;1999.90;999.90;;;6.10;99.90;;;;;;5430245;26;20424;-68
2024/04/18 04:21:01;;;;;;;1999.90;999.90;;;6.20;99.90;;;;;;5413048;26;20031;-67
2024/04/18 04:23:26;;;;;;;1999.90;999.90;;;6.20;99.90;;;;;;5420777;26;19999;-68
2024/04/18 04:25:52;;;;;;;1999.90;999.90;;;6.30;99.90;;;;;;5427566;26;19996;-68
2024/04/18 04:28:17;;;;;;;1999.90;999.90;;;6.40;99.90;;;;;;5419691;26;19999;-68
2024/04/18 04:30:43;;;;;;;1999.90;999.90;;;6.60;99.90;;;;;;5437210;26;19995;-68
2024/04/18 04:33:09;;;;;;;1999.90;999.90;;;6.70;99.90;;;;;;5422674;26;20007;-68
2024/04/18 04:35:34;;;;;;;1999.90;999.90;;;6.60;99.90;;;;;;5421592;26;19999;-68
2024/04/18 04:38:00;;;;;;;1999.90;999.90;;;6.70;99.90;;;;;;5410026;26;20416;-67
2024/04/18 04:40:25;;;;;;;1999.90;999.90;;;6.70;99.90;;;;;;5411220;26;20072;-67
2024/04/18 04:42:51;;;;;;;1999.90;999.90;;;6.80;99.90;;;;;;5432476;26;20014;-68
2024/04/18 04:45:17;;;;;;;1999.90;999.90;;;6.60;99.90;;;;;;5418790;26;20381;-68
2024/04/18 04:47:42;;;;;;;1999.90;999.90;;;6.60;99.90;;;;;;5440225;26;20323;-68
2024/04/18 04:50:08;;;;;;;1999.90;999.90;;;6.50;99.90;;;;;;5408648;26;20007;-67
2024/04/18 04:52:34;;;;;;;1999.90;999.90;;;6.50;99.90;;;;;;5442230;26;19999;-68
2024/04/18 04:54:59;;;;;;;1999.90;999.90;;;6.70;99.90;;;;;;5441557;26;20006;-68
2024/04/18 04:57:25;;;;;;;1999.90;999.90;;;6.60;99.90;;;;;;5439235;26;20423;-68
2024/04/18 04:59:51;;;;;;;1999.90;999.90;;;6.70;99.90;;;;;;5446354;26;19999;-68
2024/04/18 05:02:16;;;;;;;1999.90;999.90;;;6.90;99.90;;;;;;5424506;26;20009;-67
2024/04/18 05:04:42;;;;;;;1999.90;999.90;;;6.90;99.90;;;;;;5415631;26;20013;-68
2024/04/18 05:07:07;;;;;;;1999.90;999.90;;;6.90;99.90;;;;;;5423852;26;20063;-67
2024/04/18 05:09:33;;;;;;;1999.90;999.90;;;7.00;99.90;;;;;;5436221;26;20351;-68
2024/04/18 05:11:58;;;;;;;1999.90;999.90;;;7.00;99.90;;;;;;5420528;26;20011;-67
2024/04/18 05:14:24;;;;;;;1999.90;999.90;;;6.90;99.90;;;;;;5416991;26;20012;-68
2024/04/18 05:16:51;;;;;;;1999.90;999.90;;;6.80;99.90;;;;;;5410516;26;20011;-68
2024/04/18 05:19:19;;;;;;;1999.90;999.90;;;6.80;99.90;;;;;;5407861;26;19999;-67
2024/04/18 05:21:45;;;;;;;1999.90;999.90;;;6.90;99.90;;;;;;5444526;26;20068;-67
2024/04/18 05:24:11;;;;;;;1999.90;999.90;;;7.00;99.90;;;;;;5434759;26;20003;-68
2024/04/18 05:26:36;;;;;;;1999.90;999.90;;;7.00;99.90;;;;;;5429229;26;20018;-67
2024/04/18 05:31:47;;;;;;;1999.90;999.90;;;7.10;99.90;;;;;;5424816;26;20035;-67
2024/04/18 05:34:12;;;;;;;1999.90;999.90;;;7.00;99.90;;;;;;5400527;26;19994;-68
2024/04/18 05:36:38;;;;;;;1999.90;999.90;;;6.80;99.90;;;;;;5447195;26;20450;-67
2024/04/18 05:39:04;;;;;;;1999.90;999.90;;;6.70;99.90;;;;;;5439716;26;19996;-67
2024/04/18 05:41:32;;;;;;;1999.90;999.90;;;6.70;99.90;;;;;;5409058;26;20004;-67
2024/04/18 05:43:57;;;;;;;1999.90;999.90;;;6.70;99.90;;;;;;5400624;26;20021;-67
2024/04/18 05:46:23;;;;;;;1999.90;999.90;;;6.70;99.90;;;;;;5451647;26;19998;-68
2024/04/18 05:48:49;;;;;;;1999.90;999.90;;;6.70;99.90;;;;;;5439113;26;19996;-67
2024/04/18 05:51:14;;;;;;;1999.90;999.90;;;6.70;99.90;;;;;;5420418;26;20330;-67
2024/04/18 05:53:40;;;;;;;1999.90;999.90;;;6.70;99.90;;;;;;5446566;26;20074;-68
2024/04/18 05:56:06;;;;;;;1999.90;999.90;;;6.60;99.90;;;;;;5421885;26;20072;-67
2024/04/18 05:58:33;;;;;;;1999.90;999.90;;;6.60;99.90;;;;;;5430270;26;20003;-68
2024/04/18 06:00:58;;;;;;;1999.90;999.90;;;6.60;99.90;;;;;;5428542;26;19999;-67
2024/04/18 06:03:25;;;;;;;1999.90;999.90;;;6.60;99.90;;;;;;5447634;26;20360;-67
2024/04/18 06:05:52;;;;;;;1999.90;999.90;;;6.60;99.90;;;;;;5447236;26;19995;-68
2024/04/18 06:08:19;;;;;;;1999.90;999.90;;;6.60;99.90;;;;;;5425210;26;20039;-67
2024/04/18 06:10:45;;;;;;;1999.90;999.90;;;6.70;99.90;;;;;;5410086;26;20027;-67
2024/04/18 06:13:10;;;;;;;1999.90;999.90;;;6.80;99.90;;;;;;5427529;26;20320;-67
2024/04/18 06:15:43;;;;;;;1999.90;999.90;;;6.70;99.90;;;;;;5427586;26;20009;-68
2024/04/18 06:18:09;;;;;;;1999.90;999.90;;;6.70;99.90;;;;;;5438717;26;20022;-67
2024/04/18 06:20:40;;;;;;;1999.90;999.90;;;6.80;99.90;;;;;;5441174;26;20010;-67
2024/04/18 06:23:06;;;;;;;1999.90;999.90;;;7.00;99.90;;;;;;5437990;26;19999;-67
2024/04/18 06:25:35;;;;;;;1999.90;999.90;;;6.80;99.90;;;;;;5440216;26;20384;-67
2024/04/18 06:28:01;;;;;;;1999.90;999.90;;;6.90;99.90;;;;;;5438817;26;20034;-67
2024/04/18 06:30:27;;;;;;;1999.90;999.90;;;7.00;99.90;;;;;;5432970;26;20004;-67
2024/04/18 06:32:52;;;;;;;1999.90;999.90;;;7.10;99.90;;;;;;5441934;26;20064;-67
2024/04/18 06:35:18;;;;;;;1999.90;999.90;;;7.20;99.90;;;;;;5435600;26;20496;-67
2024/04/18 06:37:43;;;;;;;1999.90;999.90;;;7.40;99.90;;;;;;5442759;26;20035;-67
2024/04/18 06:40:09;;;;;;;1999.90;999.90;;;7.40;99.90;;;;;;5435572;26;20002;-67
2024/04/18 06:42:35;;;;;;;1999.90;999.90;;;7.50;99.90;;;;;;5441419;26;20006;-68
2024/04/18 06:45:01;;;;;;;1999.90;999.90;;;7.50;99.90;;;;;;5433033;26;20011;-67
2024/04/18 06:47:26;;;;;;;1999.90;999.90;;;7.50;99.90;;;;;;5428553;26;20067;-67
2024/04/18 06:49:53;;;;;;;1999.90;999.90;;;7.50;99.90;;;;;;5436089;26;20003;-67
2024/04/18 06:52:19;;;;;;;1999.90;999.90;;;7.60;99.90;;;;;;5426142;26;19995;-67
2024/04/18 06:54:44;;;;;;;1999.90;999.90;;;7.60;99.90;;;;;;5435288;26;20355;-68
2024/04/18 06:57:10;;;;;;;1999.90;999.90;;;7.80;99.90;;;;;;5439708;26;20009;-67
2024/04/18 06:59:36;;;;;;;1999.90;999.90;;;7.90;99.90;;;;;;5430293;26;20000;-68
2024/04/18 07:02:01;;;;;;;1999.90;999.90;;;7.90;99.90;;;;;;5439600;26;19996;-69
2024/04/18 07:04:27;;;;;;;1999.90;999.90;;;7.90;99.90;;;;;;5433131;26;19999;-68
2024/04/18 07:06:52;;;;;;;1999.90;999.90;;;7.90;99.90;;;;;;5442409;26;20429;-70
2024/04/18 07:09:18;;;;;;;1999.90;999.90;;;7.90;99.90;;;;;;5430897;26;20002;-69
2024/04/18 07:11:43;;;;;;;1999.90;999.90;;;8.00;99.90;;;;;;5419933;26;19999;-69
2024/04/18 07:14:09;;;;;;;1999.90;999.90;;;8.10;99.90;;;;;;5433001;26;20007;-69
2024/04/18 07:16:35;;;;;;;1999.90;999.90;;;8.10;99.90;;;;;;5429318;26;20014;-71
2024/04/18 07:19:00;;;;;;;1999.90;999.90;;;8.20;99.90;;;;;;5443559;26;20010;-67
2024/04/18 07:21:26;;;;;;;1999.90;999.90;;;8.30;99.90;;;;;;5453018;26;20430;-66
2024/04/18 07:23:51;;;;;;;1999.90;999.90;;;8.30;99.90;;;;;;5438490;26;19990;-66
2024/04/18 07:26:17;;;;;;;1999.90;999.90;;;8.40;99.90;;;;;;5435971;26;20003;-66
2024/04/18 07:28:43;;;;;;;1999.90;999.90;;;8.50;99.90;;;;;;5442882;26;20080;-66
2024/04/18 07:31:08;;;;;;;1999.90;999.90;;;8.40;99.90;;;;;;5446139;26;20010;-67
2024/04/18 07:33:34;;;;;;;1999.90;999.90;;;8.70;99.90;;;;;;5425652;26;19999;-66
2024/04/18 07:36:00;;;;;;;1999.90;999.90;;;8.80;99.90;;;;;;5430938;26;20005;-66
2024/04/18 07:38:26;;;;;;;1999.90;999.90;;;8.90;99.90;;;;;;5426332;26;19998;-66
2024/04/18 07:40:52;;;;;;;1999.90;999.90;;;8.80;99.90;;;;;;5439895;26;20003;-66
2024/04/18 07:43:18;;;;;;;1999.90;999.90;;;8.90;99.90;;;;;;5428265;26;20072;-66
2024/04/18 07:45:43;;;;;;;1999.90;999.90;;;9.00;99.90;;;;;;5440265;26;20018;-66
2024/04/18 07:48:09;;;;;;;1999.90;999.90;;;8.90;99.90;;;;;;5447066;26;20002;-65
2024/04/18 07:50:35;;;;;;;1999.90;999.90;;;8.90;99.90;;;;;;5429742;26;19998;-66
2024/04/18 07:53:00;;;;;;;1999.90;999.90;;;8.90;99.90;;;;;;5432951;26;20010;-65
2024/04/18 07:55:26;;;;;;;1999.90;999.90;;;8.80;99.90;;;;;;5437103;26;20388;-66
2024/04/18 07:57:52;;;;;;;1999.90;999.90;;;9.00;99.90;;;;;;5447156;26;20013;-66
2024/04/18 08:00:17;;;;;;;1999.90;999.90;;;9.10;99.90;;;;;;5434316;26;19995;-66
2024/04/18 08:02:46;;;;;;;1999.90;999.90;;;9.20;99.90;;;;;;5432078;26;20432;-66
2024/04/18 08:05:11;;;;;;;1999.90;999.90;;;9.30;99.90;;;;;;5438163;26;20003;-66
2024/04/18 08:07:37;;;;;;;1999.90;999.90;;;9.20;99.90;;;;;;5441634;26;20014;-66
2024/04/18 08:10:03;;;;;;;1999.90;999.90;;;9.40;99.90;;;;;;5437837;26;20010;-66
2024/04/18 08:12:29;;;;;;;1999.90;999.90;;;9.40;99.90;;;;;;5442939;26;20462;-66
2024/04/18 08:14:55;;;;;;;1999.90;999.90;;;9.50;99.90;;;;;;5431406;26;20030;-66
2024/04/18 08:17:20;;;;;;;1999.90;999.90;;;9.60;99.90;;;;;;5441995;26;20045;-66
2024/04/18 08:19:46;;;;;;;1999.90;999.90;;;9.50;99.90;;;;;;5450278;26;20335;-66
2024/04/18 08:22:11;;;;;;;1999.90;999.90;;;9.60;99.90;;;;;;5430033;26;20009;-65
2024/04/18 08:24:38;;;;;;;1999.90;999.90;;;9.70;99.90;;;;;;5434661;26;20005;-66
2024/04/18 08:27:03;;;;;;;1999.90;999.90;;;9.60;99.90;;;;;;5444520;26;19995;-66
2024/04/18 08:29:29;;;;;;;1999.90;999.90;;;9.80;99.90;;;;;;5441387;26;20523;-66
2024/04/18 08:31:55;;;;;;;1999.90;999.90;;;10.20;99.90;;;;;;5438970;26;20006;-66
2024/04/18 08:34:20;;;;;;;1999.90;999.90;;;10.30;99.90;;;;;;5450881;26;20116;-66
2024/04/18 08:36:46;;;;;;;1999.90;999.90;;;10.30;99.90;;;;;;5443117;26;20031;-67
2024/04/18 08:39:13;;;;;;;1999.90;999.90;;;10.30;99.90;;;;;;5451169;26;20009;-67
2024/04/18 08:41:40;;;;;;;1999.90;999.90;;;10.40;99.90;;;;;;5442717;26;20002;-67
2024/04/18 08:44:06;;;;;;;1999.90;999.90;;;10.50;99.90;;;;;;5442213;26;20027;-66
2024/04/18 08:46:36;;;;;;;1999.90;999.90;;;10.60;99.90;;;;;;5439748;26;20360;-67
2024/04/18 08:49:05;;;;;;;1999.90;999.90;;;10.80;99.90;;;;;;5437388;26;19999;-66
2024/04/18 08:51:32;;;;;;;1999.90;999.90;;;11.00;99.90;;;;;;5428274;26;20071;-66
2024/04/18 08:53:58;;;;;;;1999.90;999.90;;;11.00;99.90;;;;;;5428135;26;19999;-67
2024/04/18 08:56:25;;;;;;;1999.90;999.90;;;11.00;99.90;;;;;;5408389;26;20075;-67
2024/04/18 08:58:51;;;;;;;1999.90;999.90;;;11.00;99.90;;;;;;5441495;26;20017;-67
2024/04/18 09:01:17;;;;;;;1999.90;999.90;;;11.00;99.90;;;;;;5445049;26;19995;-66
2024/04/18 09:03:43;;;;;;;1999.90;999.90;;;10.90;99.90;;;;;;5439794;26;20048;-66
2024/04/18 09:06:09;;;;;;;1999.90;999.90;;;10.70;99.90;;;;;;5452958;26;20006;-67
2024/04/18 09:08:37;;;;;;;1999.90;999.90;;;10.70;99.90;;;;;;5441408;26;20002;-67
2024/04/18 09:11:04;;;;;;;1999.90;999.90;;;10.80;99.90;;;;;;5441363;26;20034;-67
2024/04/18 09:13:30;;;;;;;1999.90;999.90;;;11.00;99.90;;;;;;5416965;26;20002;-66
2024/04/18 09:15:56;;;;;;;1999.90;999.90;;;10.90;99.90;;;;;;5416658;26;19998;-69
2024/04/18 09:18:22;;;;;;;1999.90;999.90;;;10.80;99.90;;;;;;5421176;26;20059;-67
2024/04/18 09:20:48;;;;;;;1999.90;999.90;;;10.70;99.90;;;;;;5427676;26;19995;-68
2024/04/18 09:23:14;;;;;;;1999.90;999.90;;;10.70;99.90;;;;;;5425787;26;20142;-67
2024/04/18 09:25:41;;;;;;;1999.90;999.90;;;10.60;99.90;;;;;;5440021;26;20010;-67
2024/04/18 09:28:07;;;;;;;1999.90;999.90;;;10.70;99.90;;;;;;5419264;26;20490;-68
2024/04/18 09:30:34;;;;;;;1999.90;999.90;;;10.80;99.90;;;;;;5416346;26;20050;-67
2024/04/18 09:33:01;;;;;;;1999.90;999.90;;;11.00;99.90;;;;;;5440195;26;20010;-67
2024/04/18 09:35:32;;;;;;;1999.90;999.90;;;11.30;99.90;;;;;;5427833;26;20431;-67
2024/04/18 09:37:57;;;;;;;1999.90;999.90;;;11.40;99.90;;;;;;5438294;26;19998;-67
2024/04/18 09:40:26;;;;;;;1999.90;999.90;;;11.20;99.90;;;;;;5444430;26;20001;-67
2024/04/18 09:43:20;;;;;;;1999.90;999.90;;;11.10;99.90;;;;;;5445655;26;19994;-67
2024/04/18 09:45:51;;;;;;;1999.90;999.90;;;11.10;99.90;;;;;;5424409;26;20067;-66
2024/04/18 09:48:18;;;;;;;1999.90;999.90;;;11.10;99.90;;;;;;5443833;26;20007;-66
2024/04/18 09:50:45;;;;;;;1999.90;999.90;;;11.20;99.90;;;;;;5444135;26;20331;-68
2024/04/18 09:53:11;;;;;;;1999.90;999.90;;;11.30;99.90;;;;;;5447547;26;20009;-66
2024/04/18 09:55:37;;;;;;;1999.90;999.90;;;11.70;99.90;;;;;;5440070;26;19995;-67
2024/04/18 09:58:05;;;;;;;1999.90;999.90;;;11.90;99.90;;;;;;5436314;26;20465;-66
2024/04/18 10:00:31;;;;;;;1999.90;999.90;;;12.00;99.90;;;;;;5434635;26;20409;-66
2024/04/18 10:02:58;;;;;;;1999.90;999.90;;;11.80;99.90;;;;;;5442948;26;20479;-66
2024/04/18 10:05:26;;;;;;;1999.90;999.90;;;11.60;99.90;;;;;;5425618;26;19995;-66
2024/04/18 10:07:52;;;;;;;1999.90;999.90;;;11.70;99.90;;;;;;5440438;26;20076;-66
2024/04/18 10:10:20;;;;;;;1999.90;999.90;;;11.80;99.90;;;;;;5426939;26;20071;-66
2024/04/18 10:12:47;;;;;;;1999.90;999.90;;;11.90;99.90;;;;;;5416784;26;20006;-67
2024/04/18 10:15:17;;;;;;;1999.90;999.90;;;12.20;99.90;;;;;;5437005;26;20423;-66
2024/04/18 10:17:43;;;;;;;1999.90;999.90;;;12.50;99.90;;;;;;5439511;26;20010;-67
2024/04/18 10:20:11;;;;;;;1999.90;999.90;;;12.80;99.90;;;;;;5443232;26;20002;-66
2024/04/18 10:22:37;;;;;;;1999.90;999.90;;;12.70;99.90;;;;;;5431491;26;20520;-66
2024/04/18 10:25:03;;;;;;;1999.90;999.90;;;12.40;99.90;;;;;;5413841;26;20007;-66
2024/04/18 10:27:29;;;;;;;1999.90;999.90;;;12.30;99.90;;;;;;5434228;26;20018;-66
2024/04/18 10:29:59;;;;;;;1999.90;999.90;;;12.20;99.90;;;;;;5443065;26;20448;-66
2024/04/18 10:32:31;;;;;;;1999.90;999.90;;;12.30;99.90;;;;;;5444769;26;20014;-66
2024/04/18 10:34:58;;;;;;;1999.90;999.90;;;12.30;99.90;;;;;;5435822;26;20064;-66
2024/04/18 10:37:24;;;;;;;1999.90;999.90;;;12.30;99.90;;;;;;5438289;26;20024;-66
2024/04/18 10:39:52;;;;;;;1999.90;999.90;;;12.10;99.90;;;;;;5413622;26;19999;-67
2024/04/18 10:42:22;;;;;;;1999.90;999.90;;;12.10;99.90;;;;;;5424309;26;20010;-66
2024/04/18 10:44:48;;;;;;;1999.90;999.90;;;12.40;99.90;;;;;;5423114;26;20030;-66
2024/04/18 10:47:14;;;;;;;1999.90;999.90;;;12.60;99.90;;;;;;5415732;26;20017;-66
2024/04/18 10:49:40;;;;;;;1999.90;999.90;;;12.70;99.90;;;;;;5443483;26;20366;-66
2024/04/18 10:52:10;;;;;;;1999.90;999.90;;;12.60;99.90;;;;;;5431860;26;20008;-66
2024/04/18 10:54:37;;;;;;;1999.90;999.90;;;12.80;99.90;;;;;;5442250;26;20027;-66
2024/04/18 10:57:02;;;;;;;1999.90;999.90;;;12.80;99.90;;;;;;5438830;26;20012;-66
2024/04/18 10:59:28;;;;;;;1999.90;999.90;;;12.80;99.90;;;;;;5436136;26;20064;-67
2024/04/18 11:02:05;;;;;;;1999.90;999.90;;;12.80;99.90;;;;;;5440108;26;20014;-66
2024/04/18 11:04:31;;;;;;;1999.90;999.90;;;13.20;99.90;;;;;;5437153;26;20450;-66
2024/04/18 11:06:56;;;;;;;1999.90;999.90;;;13.30;99.90;;;;;;5432980;26;19998;-67
2024/04/18 11:09:22;;;;;;;1999.90;999.90;;;13.30;99.90;;;;;;5440177;26;20443;-66
2024/04/18 11:11:51;;;;;;;1999.90;999.90;;;13.30;99.90;;;;;;5437393;26;19996;-67
2024/04/18 11:14:25;;;;;;;1999.90;999.90;;;13.10;99.90;;;;;;5427917;26;20034;-67
2024/04/18 11:17:00;;;;;;;1999.90;999.90;;;12.90;99.90;;;;;;5443009;26;20030;-67
2024/04/18 11:19:29;;;;;;;1999.90;999.90;;;12.70;99.90;;;;;;5440601;26;20014;-67
2024/04/18 11:21:57;;;;;;;1999.90;999.90;;;12.50;99.90;;;;;;5436706;26;19999;-66
2024/04/18 11:24:23;;;;;;;1999.90;999.90;;;12.50;99.90;;;;;;5423165;26;20431;-67
2024/04/18 11:26:50;;;;;;;1999.90;999.90;;;12.40;99.90;;;;;;5437276;26;20055;-67
2024/04/18 11:29:15;;;;;;;1999.90;999.90;;;12.30;99.90;;;;;;5437914;26;20014;-66
2024/04/18 11:31:41;;;;;;;1999.90;999.90;;;12.40;99.90;;;;;;5446110;26;20416;-67
2024/04/18 11:34:07;;;;;;;1999.90;999.90;;;12.50;99.90;;;;;;5449642;26;20014;-66
2024/04/18 11:36:32;;;;;;;1999.90;999.90;;;12.70;99.90;;;;;;5442107;26;20029;-66
2024/04/18 11:39:01;;;;;;;1999.90;999.90;;;12.70;99.90;;;;;;5424764;26;20312;-66
2024/04/18 11:41:33;;;;;;;1999.90;999.90;;;12.60;99.90;;;;;;5439909;26;20481;-65
2024/04/18 11:44:01;;;;;;;1999.90;999.90;;;12.40;99.90;;;;;;5441789;26;19995;-67
2024/04/18 11:46:26;;;;;;;1999.90;999.90;;;12.40;99.90;;;;;;5414972;26;19994;-67
2024/04/18 11:48:52;;;;;;;1999.90;999.90;;;12.40;99.90;;;;;;5420799;26;19999;-67
2024/04/18 11:51:18;;;;;;;1999.90;999.90;;;12.50;99.90;;;;;;5421554;26;19996;-67
2024/04/18 11:53:43;;;;;;;1999.90;999.90;;;12.70;99.90;;;;;;5415706;26;20443;-67
2024/04/18 11:56:09;;;;;;;1999.90;999.90;;;13.00;99.90;;;;;;5467901;26;20314;-67
2024/04/18 11:58:35;;;;;;;1999.90;999.90;;;13.10;99.90;;;;;;5427074;26;20419;-67
2024/04/18 12:01:00;;;;;;;1999.90;999.90;;;13.20;99.90;;;;;;5440783;26;20033;-67
2024/04/18 12:03:27;;;;;;;1999.90;999.90;;;13.20;99.90;;;;;;5439158;26;20005;-67